Time;durP1;ratioP1;P1;durP2;ratioP2;P2;SDS_P1;SDS_P2;PMS_P1;PMS_P2;Temp;Humidity;BMP_temperature;BMP_pressure;BME280_temperature;BME280_humidity;BME280_pressure;Samples;Min_cycle;Max_cycle;Signal;HPM_P1;HPM_P2
2022/10/27 00:02:19;;;;;;;;;;;15.00;99.90;;;;;;8398503;28;19928;-77
2022/10/27 00:06:21;;;;;;;;;;;15.10;99.90;;;;;;8373523;28;19929;-77
2022/10/27 00:10:22;;;;;;;;;;;15.10;99.90;;;;;;8395735;28;19925;-77
2022/10/27 00:14:24;;;;;;;;;;;15.10;99.90;;;;;;8393018;28;20023;-77
2022/10/27 00:18:26;;;;;;;;;;;15.10;99.90;;;;;;8402753;28;19952;-77
2022/10/27 00:22:28;;;;;;;;;;;15.10;99.90;;;;;;8396422;28;19928;-77
2022/10/27 00:26:29;;;;;;;;;;;15.10;99.90;;;;;;8392717;28;19970;-77
2022/10/27 00:30:31;;;;;;;;;;;15.10;99.90;;;;;;8396814;28;20326;-77
2022/10/27 00:34:33;;;;;;;;;;;15.10;99.90;;;;;;8400534;28;19928;-77
2022/10/27 00:38:34;;;;;;;;;;;15.10;99.90;;;;;;8391300;28;19935;-77
2022/10/27 00:42:36;;;;;;;;;;;15.10;99.90;;;;;;8399756;28;19928;-77
2022/10/27 00:46:37;;;;;;;;;;;15.10;99.90;;;;;;8398804;28;19924;-77
2022/10/27 00:50:39;;;;;;;;;;;15.10;99.90;;;;;;8394904;28;19928;-77
2022/10/27 00:54:41;;;;;;;;;;;15.10;99.90;;;;;;8394030;28;19942;-77
2022/10/27 00:58:44;;;;;;;;;;;15.00;99.90;;;;;;8391175;28;20024;-77
2022/10/27 01:02:46;;;;;;;;;;;15.00;99.90;;;;;;8396044;28;20310;-77
2022/10/27 01:06:47;;;;;;;;;;;15.00;99.90;;;;;;8391619;28;20378;-77
2022/10/27 01:10:50;;;;;;;;;;;15.00;99.90;;;;;;8373378;28;20296;-77
2022/10/27 01:14:51;;;;;;;;;;;15.00;99.90;;;;;;8395865;28;19956;-77
2022/10/27 01:18:59;;;;;;;;;;;15.00;99.90;;;;;;8395519;28;19924;-77
2022/10/27 01:23:00;;;;;;;;;;;15.00;99.90;;;;;;8396571;28;19924;-77
2022/10/27 01:27:04;;;;;;;;;;;15.00;99.90;;;;;;8391166;28;19924;-77
2022/10/27 01:31:10;;;;;;;;;;;15.00;99.90;;;;;;8391962;28;20311;-77
2022/10/27 01:35:27;;;;;;;;;;;15.00;99.90;;;;;;8397204;28;19950;-77
2022/10/27 01:39:45;;;;;;;;;;;15.00;99.90;;;;;;8385979;28;19938;-77
2022/10/27 01:43:47;;;;;;;;;;;15.00;99.90;;;;;;8373377;28;19933;-77
2022/10/27 01:47:50;;;;;;;;;;;15.00;99.90;;;;;;8394004;28;19924;-77
2022/10/27 01:51:51;;;;;;;;;;;15.00;99.90;;;;;;8389898;28;19935;-77
2022/10/27 01:55:56;;;;;;;;;;;15.00;99.90;;;;;;8376601;28;19939;-77
2022/10/27 01:59:57;;;;;;;;;;;15.00;99.90;;;;;;8388934;28;19928;-77
2022/10/27 02:04:01;;;;;;;;;;;15.00;99.90;;;;;;8375253;28;20298;-77
2022/10/27 02:08:03;;;;;;;;;;;15.10;99.90;;;;;;8375171;28;19931;-77
2022/10/27 02:12:07;;;;;;;;;;;15.10;99.90;;;;;;8386934;28;19929;-77
2022/10/27 02:16:12;;;;;;;;;;;15.10;99.90;;;;;;8389387;28;20295;-77
2022/10/27 02:20:18;;;;;;;;;;;15.10;99.90;;;;;;8387177;28;19931;-77
2022/10/27 02:24:21;;;;;;;;;;;15.10;99.90;;;;;;8388210;28;20305;-77
2022/10/27 02:28:26;;;;;;;;;;;15.10;99.90;;;;;;8389266;28;19928;-77
2022/10/27 02:32:28;;;;;;;;;;;15.10;99.90;;;;;;8384576;28;20383;-77
2022/10/27 02:36:30;;;;;;;;;;;15.10;99.90;;;;;;8394001;28;19935;-77
2022/10/27 02:40:32;;;;;;;;;;;15.10;99.90;;;;;;8386213;28;19931;-77
2022/10/27 02:44:33;;;;;;;;;;;15.10;99.90;;;;;;8390858;28;19931;-77
2022/10/27 02:48:35;;;;;;;;;;;15.10;99.90;;;;;;8389812;28;19985;-77
2022/10/27 02:52:37;;;;;;;;;;;15.10;99.90;;;;;;8406418;28;20310;-77
2022/10/27 02:56:38;;;;;;;;;;;15.10;99.90;;;;;;8386929;28;19925;-76
2022/10/27 03:00:40;;;;;;;;;;;15.10;99.90;;;;;;8384567;28;20336;-77
2022/10/27 03:04:41;;;;;;;;;;;15.10;99.90;;;;;;8386773;28;19960;-77
2022/10/27 03:08:43;;;;;;;;;;;15.10;99.90;;;;;;8402918;28;20358;-76
2022/10/27 03:12:46;;;;;;;;;;;15.10;99.90;;;;;;8390497;28;19931;-77
2022/10/27 03:16:48;;;;;;;;;;;15.00;99.90;;;;;;8388758;28;20003;-77
2022/10/27 03:20:49;;;;;;;;;;;15.00;99.90;;;;;;8386821;28;19923;-77
2022/10/27 03:24:51;;;;;;;;;;;15.00;99.90;;;;;;8392191;28;19925;-77
2022/10/27 03:28:53;;;;;;;;;;;14.90;99.90;;;;;;8388764;28;20452;-77
2022/10/27 03:32:54;;;;;;;;;;;14.90;99.90;;;;;;8386355;28;19929;-77
2022/10/27 03:36:56;;;;;;;;;;;14.90;99.90;;;;;;8395074;28;19932;-77
2022/10/27 03:40:57;;;;;;;;;;;14.80;99.90;;;;;;8392779;28;20020;-77
2022/10/27 03:44:59;;;;;;;;;;;14.80;99.90;;;;;;8381343;28;19960;-76
2022/10/27 03:49:01;;;;;;;;;;;14.80;99.90;;;;;;8400243;28;19936;-77
2022/10/27 03:53:03;;;;;;;;;;;14.70;99.90;;;;;;8391559;28;20023;-77
2022/10/27 03:57:04;;;;;;;;;;;14.70;99.90;;;;;;8391801;28;19932;-77
2022/10/27 04:01:06;;;;;;;;;;;14.70;99.90;;;;;;8394986;28;20356;-78
2022/10/27 04:05:08;;;;;;;;;;;14.60;99.90;;;;;;8395988;28;19928;-77
2022/10/27 04:09:09;;;;;;;;;;;14.60;99.90;;;;;;8394810;28;19929;-77
2022/10/27 04:13:11;;;;;;;;;;;14.60;99.90;;;;;;8378740;28;19931;-77
2022/10/27 04:17:12;;;;;;;;;;;14.60;99.90;;;;;;8395892;28;19963;-77
2022/10/27 04:21:14;;;;;;;;;;;14.60;99.90;;;;;;8394064;28;19930;-77
2022/10/27 04:25:16;;;;;;;;;;;14.60;99.90;;;;;;8395995;28;19928;-77
2022/10/27 04:29:17;;;;;;;;;;;14.60;99.90;;;;;;8399789;28;20062;-77
2022/10/27 04:33:19;;;;;;;;;;;14.50;99.90;;;;;;8404194;28;19940;-77
2022/10/27 04:37:25;;;;;;;;;;;14.50;99.90;;;;;;8379017;28;19985;-76
2022/10/27 04:41:26;;;;;;;;;;;14.50;99.90;;;;;;8389086;28;19936;-77
2022/10/27 04:45:28;;;;;;;;;;;14.50;99.90;;;;;;8390883;28;19939;-76
2022/10/27 04:49:30;;;;;;;;;;;14.40;99.90;;;;;;8390515;28;19929;-77
2022/10/27 04:53:31;;;;;;;;;;;14.40;99.90;;;;;;8386111;28;20027;-77
2022/10/27 04:57:33;;;;;;;;;;;14.40;99.90;;;;;;8391761;28;20388;-77
2022/10/27 05:01:34;;;;;;;;;;;14.40;99.90;;;;;;8385057;28;19925;-77
2022/10/27 05:05:36;;;;;;;;;;;14.40;99.90;;;;;;8395769;28;19924;-77
2022/10/27 05:09:38;;;;;;;;;;;14.30;99.90;;;;;;8395263;28;20062;-76
2022/10/27 05:13:39;;;;;;;;;;;14.30;99.90;;;;;;8393991;28;19936;-77
2022/10/27 05:17:41;;;;;;;;;;;14.30;99.90;;;;;;8389468;28;19924;-77
2022/10/27 05:21:43;;;;;;;;;;;14.30;99.90;;;;;;8393708;28;20383;-77
2022/10/27 05:25:49;;;;;;;;;;;14.30;99.90;;;;;;8392099;28;19930;-77
2022/10/27 05:29:50;;;;;;;;;;;14.20;99.90;;;;;;8369296;28;19994;-77
2022/10/27 05:33:52;;;;;;;;;;;14.20;99.90;;;;;;8386339;28;20290;-77
2022/10/27 05:37:53;;;;;;;;;;;14.20;99.90;;;;;;8389665;28;19924;-77
2022/10/27 05:41:55;;;;;;;;;;;14.20;99.90;;;;;;8385733;28;20023;-77
2022/10/27 05:45:57;;;;;;;;;;;14.20;99.90;;;;;;8374008;28;19931;-77
2022/10/27 05:49:58;;;;;;;;;;;14.20;99.90;;;;;;8399165;28;20379;-77
2022/10/27 05:54:00;;;;;;;;;;;14.20;99.90;;;;;;8382407;28;19925;-77
2022/10/27 05:58:03;;;;;;;;;;;14.10;99.90;;;;;;8385299;28;19939;-75
2022/10/27 06:02:04;;;;;;;;;;;14.10;99.90;;;;;;8396517;28;19925;-75
2022/10/27 06:06:06;;;;;;;;;;;14.10;99.90;;;;;;8390860;28;20313;-75
2022/10/27 06:10:08;;;;;;;;;;;14.10;99.90;;;;;;8388670;28;19929;-75
2022/10/27 06:14:10;;;;;;;;;;;14.10;99.90;;;;;;8393798;28;19924;-75
2022/10/27 06:18:12;;;;;;;;;;;14.10;99.90;;;;;;8381477;28;20027;-74
2022/10/27 06:22:13;;;;;;;;;;;14.10;99.90;;;;;;8397880;28;20434;-75
2022/10/27 06:26:17;;;;;;;;;;;14.10;99.90;;;;;;8393516;28;20319;-75
2022/10/27 06:30:19;;;;;;;;;;;14.10;99.90;;;;;;8387816;28;19928;-75
2022/10/27 06:34:21;;;;;;;;;;;14.10;99.90;;;;;;8384666;28;19942;-75
2022/10/27 06:38:22;;;;;;;;;;;14.10;99.90;;;;;;8365953;28;19928;-75
2022/10/27 06:42:24;;;;;;;;;;;14.10;99.90;;;;;;8377907;28;19950;-75
2022/10/27 06:46:25;;;;;;;;;;;14.10;99.90;;;;;;8390552;28;19924;-75
2022/10/27 06:50:27;;;;;;;;;;;14.10;99.90;;;;;;8394269;28;20380;-75
2022/10/27 06:54:29;;;;;;;;;;;14.10;99.90;;;;;;8390933;28;19924;-75
2022/10/27 06:58:33;;;;;;;;;;;14.20;99.90;;;;;;8374265;28;19925;-75
2022/10/27 07:02:35;;;;;;;;;;;14.20;99.90;;;;;;8392298;28;19935;-75
2022/10/27 07:06:37;;;;;;;;;;;14.20;99.90;;;;;;8383323;28;19924;-75
2022/10/27 07:10:39;;;;;;;;;;;14.20;99.90;;;;;;8400001;28;19929;-75
2022/10/27 07:14:40;;;;;;;;;;;14.20;99.90;;;;;;8390701;28;20034;-75
2022/10/27 07:18:42;;;;;;;;;;;14.30;99.90;;;;;;8389880;28;19935;-75
2022/10/27 07:22:43;;;;;;;;;;;14.30;99.90;;;;;;8392098;28;19933;-75
2022/10/27 07:26:45;;;;;;;;;;;14.30;99.90;;;;;;8401934;28;19924;-75
2022/10/27 07:30:47;;;;;;;;;;;14.30;99.90;;;;;;8398471;28;19943;-75
2022/10/27 07:34:49;;;;;;;;;;;14.30;99.90;;;;;;8392667;28;19934;-75
2022/10/27 07:38:50;;;;;;;;;;;14.30;99.90;;;;;;8377651;28;19928;-75
2022/10/27 07:42:55;;;;;;;;;;;14.30;99.90;;;;;;8378039;28;19929;-75
2022/10/27 07:46:56;;;;;;;;;;;14.40;99.90;;;;;;8379833;28;20311;-75
2022/10/27 07:50:58;;;;;;;;;;;14.40;99.90;;;;;;8393423;28;19935;-75
2022/10/27 07:54:59;;;;;;;;;;;14.40;99.90;;;;;;8393842;28;20287;-75
2022/10/27 07:59:01;;;;;;;;;;;14.40;99.90;;;;;;8402124;28;19924;-75
2022/10/27 08:03:04;;;;;;;;;;;14.50;99.90;;;;;;8398271;28;19947;-75
2022/10/27 08:07:06;;;;;;;;;;;14.70;99.90;;;;;;8382148;28;19924;-75
2022/10/27 08:11:07;;;;;;;;;;;14.80;99.90;;;;;;8396299;28;20030;-75
2022/10/27 08:15:10;;;;;;;;;;;15.00;99.90;;;;;;8390871;28;19928;-76
2022/10/27 08:19:11;;;;;;;;;;;15.20;99.90;;;;;;8382590;28;19930;-76
2022/10/27 08:23:14;;;;;;;;;;;15.30;99.90;;;;;;8394623;28;19930;-76
2022/10/27 08:27:16;;;;;;;;;;;15.30;99.90;;;;;;8379665;28;19948;-75
2022/10/27 08:31:17;;;;;;;;;;;15.40;99.90;;;;;;8391947;28;19924;-75
2022/10/27 08:35:19;;;;;;;;;;;15.50;99.90;;;;;;8379190;28;19929;-75
2022/10/27 08:39:20;;;;;;;;;;;15.60;99.90;;;;;;8394267;28;19960;-76
2022/10/27 08:43:41;;;;;;;;;;;15.80;99.90;;;;;;8400315;28;19924;-75
2022/10/27 08:47:43;;;;;;;;;;;15.90;99.90;;;;;;8398188;28;20015;-75
2022/10/27 08:51:46;;;;;;;;;;;16.10;99.90;;;;;;8401000;28;19931;-75
2022/10/27 08:55:47;;;;;;;;;;;16.30;99.90;;;;;;8383491;28;21532;-75
2022/10/27 08:59:53;;;;;;;;;;;16.40;99.90;;;;;;8399929;28;19934;-75
2022/10/27 09:04:04;;;;;;;;;;;16.50;99.90;;;;;;8398881;28;20291;-75
2022/10/27 09:08:12;;;;;;;;;;;16.70;99.90;;;;;;8402404;28;20019;-75
2022/10/27 09:12:14;;;;;;;;;;;16.90;99.90;;;;;;8399938;28;19946;-75
2022/10/27 09:16:20;;;;;;;;;;;17.10;99.90;;;;;;8379571;28;19928;-75
2022/10/27 09:20:40;;;;;;;;;;;17.20;99.90;;;;;;8392700;28;20245;-75
2022/10/27 09:24:42;;;;;;;;;;;17.30;99.90;;;;;;8397138;28;19928;-75
2022/10/27 09:28:45;;;;;;;;;;;17.30;99.90;;;;;;8394936;28;20337;-75
2022/10/27 09:32:48;;;;;;;;;;;17.20;99.90;;;;;;8377274;28;19928;-75
2022/10/27 09:36:51;;;;;;;;;;;17.20;99.90;;;;;;8393719;28;20881;-75
2022/10/27 09:40:53;;;;;;;;;;;17.20;99.90;;;;;;8406521;28;19931;-75
2022/10/27 09:44:59;;;;;;;;;;;17.20;99.90;;;;;;8398568;28;20359;-76
2022/10/27 09:49:02;;;;;;;;;;;17.30;99.90;;;;;;8392780;28;19929;-75
2022/10/27 09:53:27;;;;;;;;;;;17.40;99.90;;;;;;8373579;28;19928;-75
2022/10/27 09:57:32;;;;;;;;;;;17.50;99.90;;;;;;8395618;28;19935;-75
2022/10/27 10:01:48;;;;;;;;;;;17.60;99.90;;;;;;8398198;28;19968;-75
2022/10/27 10:05:57;;;;;;;;;;;17.90;99.90;;;;;;8389692;28;19935;-75
2022/10/27 10:10:00;;;;;;;;;;;18.20;99.90;;;;;;8394537;28;19931;-75
2022/10/27 10:14:02;;;;;;;;;;;18.50;99.90;;;;;;8387394;28;20006;-75
2022/10/27 10:18:16;;;;;;;;;;;18.90;99.90;;;;;;8376664;28;20368;-75
2022/10/27 10:22:31;;;;;;;;;;;19.10;99.90;;;;;;8386240;28;19935;-75
2022/10/27 10:26:33;;;;;;;;;;;19.20;99.90;;;;;;8386712;28;19931;-76
2022/10/27 10:30:36;;;;;;;;;;;19.10;99.90;;;;;;8390090;28;20287;-75
2022/10/27 10:34:38;;;;;;;;;;;19.00;99.90;;;;;;8393006;28;19951;-76
2022/10/27 10:38:47;;;;;;;;;;;18.80;99.90;;;;;;8408159;28;19940;-75
2022/10/27 10:42:58;;;;;;;;;;;18.70;99.90;;;;;;8391242;28;19976;-75
2022/10/27 10:47:00;;;;;;;;;;;18.70;99.90;;;;;;8381948;28;19924;-75
2022/10/27 10:51:02;;;;;;;;;;;18.60;99.90;;;;;;8374573;28;20934;-75
2022/10/27 10:55:06;;;;;;;;;;;18.60;99.90;;;;;;8376438;28;19928;-75
2022/10/27 10:59:12;;;;;;;;;;;18.50;99.90;;;;;;8374487;28;20377;-75
2022/10/27 11:03:15;;;;;;;;;;;18.50;99.90;;;;;;8378408;28;19928;-75
2022/10/27 11:07:20;;;;;;;;;;;18.50;99.90;;;;;;8381968;28;19930;-75
2022/10/27 11:11:24;;;;;;;;;;;18.50;99.90;;;;;;8376643;28;19925;-75
2022/10/27 11:15:41;;;;;;;;;;;18.60;99.90;;;;;;8362352;28;19940;-75
2022/10/27 11:19:43;;;;;;;;;;;18.60;99.90;;;;;;8377279;28;19931;-75
2022/10/27 11:23:46;;;;;;;;;;;18.60;99.90;;;;;;8392269;28;19925;-75
2022/10/27 11:28:15;;;;;;;;;;;18.70;99.90;;;;;;8380224;28;19924;-75
2022/10/27 11:32:24;;;;;;;;;;;18.70;99.90;;;;;;8361182;28;19931;-75
2022/10/27 11:36:49;;;;;;;;;;;19.00;99.90;;;;;;8377410;28;19932;-75
2022/10/27 11:40:51;;;;;;;;;;;19.20;99.90;;;;;;8367560;28;19932;-75
2022/10/27 11:45:01;;;;;;;;;;;19.30;99.90;;;;;;8371383;28;20406;-75
2022/10/27 11:49:18;;;;;;;;;;;19.30;99.90;;;;;;8375613;28;19924;-75
2022/10/27 11:53:19;;;;;;;;;;;19.40;99.90;;;;;;8379396;28;19928;-76
2022/10/27 11:57:21;;;;;;;;;;;19.40;99.90;;;;;;8373247;28;19971;-75
2022/10/27 12:01:39;;;;;;;;;;;19.40;99.90;;;;;;8379657;28;20027;-75
2022/10/27 12:05:50;;;;;;;;;;;19.40;99.90;;;;;;8378058;28;19989;-75
2022/10/27 12:09:57;;;;;;;;;;;19.40;99.90;;;;;;8375736;28;19955;-75
2022/10/27 12:14:05;;;;;;;;;;;19.30;99.90;;;;;;8377322;28;19944;-75
2022/10/27 12:18:15;;;;;;;;;;;19.20;99.90;;;;;;8374880;28;21793;-75
2022/10/27 12:22:26;;;;;;;;;;;19.20;99.90;;;;;;8377456;28;19929;-75
2022/10/27 12:26:28;;;;;;;;;;;19.20;99.90;;;;;;8357846;28;20512;-75
2022/10/27 12:30:30;;;;;;;;;;;19.20;99.90;;;;;;8371593;28;19997;-76
2022/10/27 12:34:37;;;;;;;;;;;19.20;99.90;;;;;;8379541;28;20035;-75
2022/10/27 12:38:46;;;;;;;;;;;19.20;99.90;;;;;;8372705;28;20196;-75
2022/10/27 12:43:00;;;;;;;;;;;19.30;99.90;;;;;;8372689;28;20433;-76
2022/10/27 12:47:17;;;;;;;;;;;19.30;99.90;;;;;;8372628;28;19935;-75
2022/10/27 12:51:18;;;;;;;;;;;19.50;99.90;;;;;;8373712;28;20291;-75
2022/10/27 12:55:25;;;;;;;;;;;19.50;99.90;;;;;;8373819;28;19932;-75
2022/10/27 12:59:33;;;;;;;;;;;19.50;99.90;;;;;;8376516;28;19960;-76
2022/10/27 13:03:55;;;;;;;;;;;19.50;99.90;;;;;;8374805;28;19928;-75
2022/10/27 13:08:12;;;;;;;;;;;19.50;99.90;;;;;;8344468;28;19965;-75
2022/10/27 13:12:20;;;;;;;;;;;19.50;99.90;;;;;;8377071;28;19929;-75
2022/10/27 13:16:29;;;;;;;;;;;19.50;99.90;;;;;;8361134;28;19935;-75
2022/10/27 13:20:48;;;;;;;;;;;19.50;99.90;;;;;;8373112;28;20360;-75
2022/10/27 13:25:02;;;;;;;;;;;19.50;99.90;;;;;;8358959;28;19924;-75
2022/10/27 13:29:15;;;;;;;;;;;19.60;99.90;;;;;;8369587;28;20660;-75
2022/10/27 13:33:49;;;;;;;;;;;19.60;99.90;;;;;;8372568;28;20029;-75
2022/10/27 13:37:54;;;;;;;;;;;19.60;99.90;;;;;;8339755;28;20364;-76
2022/10/27 13:42:02;;;;;;;;;;;19.60;99.90;;;;;;8371338;28;19924;-76
2022/10/27 13:46:03;;;;;;;;;;;19.60;99.90;;;;;;8372770;28;19925;-75
2022/10/27 13:50:25;;;;;;;;;;;19.70;99.90;;;;;;8384104;28;19974;-75
2022/10/27 13:54:45;;;;;;;;;;;19.70;99.90;;;;;;8370888;28;19925;-75
2022/10/27 13:58:57;;;;;;;;;;;19.60;99.90;;;;;;8371987;28;19928;-75
2022/10/27 14:03:28;;;;;;;;;;;19.60;99.90;;;;;;8374336;28;20428;-75
2022/10/27 14:07:32;;;;;;;;;;;19.70;99.90;;;;;;8319400;28;20553;-75
2022/10/27 14:11:34;;;;;;;;;;;19.80;99.90;;;;;;8365067;28;19939;-76
2022/10/27 14:15:36;;;;;;;;;;;19.90;99.90;;;;;;8371638;28;19928;-76
2022/10/27 14:19:38;;;;;;;;;;;19.90;99.90;;;;;;8370964;28;19929;-75
2022/10/27 14:23:40;;;;;;;;;;;20.00;99.90;;;;;;8369125;28;20012;-75
2022/10/27 14:27:41;;;;;;;;;;;20.10;99.90;;;;;;8371155;28;19951;-75
2022/10/27 14:31:43;;;;;;;;;;;20.10;99.90;;;;;;8372442;28;20402;-75
2022/10/27 14:35:45;;;;;;;;;;;20.10;99.90;;;;;;8373091;28;19924;-76
2022/10/27 14:39:48;;;;;;;;;;;20.10;99.90;;;;;;8371363;28;19928;-75
2022/10/27 14:43:52;;;;;;;;;;;20.20;99.90;;;;;;8362477;28;20411;-75
2022/10/27 14:48:04;;;;;;;;;;;20.20;99.90;;;;;;8372574;28;20399;-76
2022/10/27 14:52:08;;;;;;;;;;;20.20;99.90;;;;;;8385619;28;19946;-76
2022/10/27 14:56:22;;;;;;;;;;;20.30;99.90;;;;;;8369896;28;19928;-75
2022/10/27 15:00:27;;;;;;;;;;;20.40;99.90;;;;;;8363588;28;19932;-75
2022/10/27 15:04:29;;;;;;;;;;;20.40;99.90;;;;;;8373393;28;19935;-76
2022/10/27 15:08:37;;;;;;;;;;;20.60;99.90;;;;;;8373208;28;19938;-76
2022/10/27 15:12:39;;;;;;;;;;;20.70;99.90;;;;;;8369257;28;19971;-76
2022/10/27 15:16:42;;;;;;;;;;;20.90;99.90;;;;;;8368714;28;19987;-76
2022/10/27 15:20:44;;;;;;;;;;;21.00;99.90;;;;;;8380488;28;19936;-75
2022/10/27 15:24:46;;;;;;;;;;;20.90;99.90;;;;;;8371651;28;19944;-76
2022/10/27 15:28:48;;;;;;;;;;;20.90;99.90;;;;;;8371972;28;20587;-75
2022/10/27 15:32:50;;;;;;;;;;;21.00;99.90;;;;;;8372352;28;19981;-75
2022/10/27 15:36:52;;;;;;;;;;;21.10;99.90;;;;;;8371393;28;19954;-76
2022/10/27 15:41:04;;;;;;;;;;;21.30;99.90;;;;;;8368639;28;19932;-75
2022/10/27 15:45:24;;;;;;;;;;;21.80;99.90;;;;;;8375046;28;19938;-76
2022/10/27 15:49:32;;;;;;;;;;;22.20;99.90;;;;;;8389622;28;20007;-76
2022/10/27 15:53:35;;;;;;;;;;;22.40;99.90;;;;;;8375214;28;19968;-75
2022/10/27 15:57:39;;;;;;;;;;;22.30;99.90;;;;;;8378747;28;19929;-75
2022/10/27 16:01:44;;;;;;;;;;;22.10;99.90;;;;;;8376868;28;19925;-76
2022/10/27 16:05:48;;;;;;;;;;;21.70;99.90;;;;;;8372698;28;20330;-75
2022/10/27 16:09:50;;;;;;;;;;;21.30;99.90;;;;;;8390462;28;19986;-76
2022/10/27 16:13:54;;;;;;;;;;;21.00;99.90;;;;;;8375950;28;19928;-76
2022/10/27 16:17:57;;;;;;;;;;;20.70;99.90;;;;;;8378124;28;20027;-75
2022/10/27 16:22:01;;;;;;;;;;;20.40;99.90;;;;;;8376485;28;19929;-76
2022/10/27 16:26:02;;;;;;;;;;;20.20;99.90;;;;;;8377923;28;20019;-76
2022/10/27 16:30:06;;;;;;;;;;;20.00;99.90;;;;;;8377279;28;20284;-76
2022/10/27 16:34:18;;;;;;;;;;;19.90;99.90;;;;;;8375470;28;20337;-75
2022/10/27 16:38:22;;;;;;;;;;;19.70;99.90;;;;;;8362468;28;19933;-76
2022/10/27 16:42:26;;;;;;;;;;;19.60;99.90;;;;;;8378596;28;19931;-75
2022/10/27 16:46:28;;;;;;;;;;;19.50;99.90;;;;;;8374693;28;20293;-76
2022/10/27 16:50:30;;;;;;;;;;;19.40;99.90;;;;;;8376522;28;19924;-76
2022/10/27 16:54:32;;;;;;;;;;;19.40;99.90;;;;;;8371739;28;19942;-75
2022/10/27 16:58:35;;;;;;;;;;;19.30;99.90;;;;;;8377052;28;19935;-75
2022/10/27 17:02:36;;;;;;;;;;;19.30;99.90;;;;;;8376434;28;19937;-75
2022/10/27 17:06:38;;;;;;;;;;;19.30;99.90;;;;;;8375514;28;19935;-75
2022/10/27 17:10:40;;;;;;;;;;;19.20;99.90;;;;;;8368083;28;19943;-76
2022/10/27 17:14:41;;;;;;;;;;;19.20;99.90;;;;;;8363159;28;19960;-76
2022/10/27 17:18:43;;;;;;;;;;;19.10;99.90;;;;;;8388650;28;19925;-75
2022/10/27 17:22:45;;;;;;;;;;;19.00;99.90;;;;;;8362384;28;20016;-75
2022/10/27 17:26:46;;;;;;;;;;;19.00;99.90;;;;;;8372724;28;19964;-76
2022/10/27 17:30:48;;;;;;;;;;;19.00;99.90;;;;;;8372527;28;19925;-75
2022/10/27 17:34:50;;;;;;;;;;;18.90;99.90;;;;;;8373444;28;19929;-75
2022/10/27 17:38:51;;;;;;;;;;;18.80;99.90;;;;;;8375178;28;19928;-75
2022/10/27 17:42:55;;;;;;;;;;;18.70;99.90;;;;;;8372387;28;19933;-75
2022/10/27 17:46:56;;;;;;;;;;;18.60;99.90;;;;;;8359329;28;19928;-75
2022/10/27 17:51:02;;;;;;;;;;;18.50;99.90;;;;;;8373704;28;19939;-75
2022/10/27 17:55:04;;;;;;;;;;;18.30;99.90;;;;;;8377534;28;19936;-75
2022/10/27 17:59:12;;;;;;;;;;;18.20;99.90;;;;;;8372362;28;20376;-75
2022/10/27 18:03:13;;;;;;;;;;;18.10;99.90;;;;;;8375007;28;19935;-76
2022/10/27 18:07:15;;;;;;;;;;;18.00;99.90;;;;;;8375361;28;20398;-75
2022/10/27 18:11:17;;;;;;;;;;;17.90;99.90;;;;;;8372431;28;19926;-75
2022/10/27 18:15:19;;;;;;;;;;;17.80;99.90;;;;;;8370989;28;20023;-76
2022/10/27 18:19:37;;;;;;;;;;;17.70;99.90;;;;;;8370012;28;20422;-76
2022/10/27 18:23:40;;;;;;;;;;;17.60;99.90;;;;;;8373441;28;19932;-75
2022/10/27 18:27:42;;;;;;;;;;;17.40;99.90;;;;;;8369458;28;19925;-76
2022/10/27 18:31:43;;;;;;;;;;;17.30;99.90;;;;;;8361296;28;19936;-75
2022/10/27 18:35:45;;;;;;;;;;;17.30;99.90;;;;;;8371808;28;19925;-76
2022/10/27 18:39:47;;;;;;;;;;;17.30;99.90;;;;;;8370303;28;20016;-76
2022/10/27 18:43:49;;;;;;;;;;;17.30;99.90;;;;;;8371108;28;20395;-76
2022/10/27 18:47:51;;;;;;;;;;;17.20;99.90;;;;;;8351910;28;19931;-76
2022/10/27 18:51:52;;;;;;;;;;;17.20;99.90;;;;;;8378731;28;19950;-75
2022/10/27 18:55:54;;;;;;;;;;;17.20;99.90;;;;;;8370204;28;20375;-76
2022/10/27 18:59:55;;;;;;;;;;;17.10;99.90;;;;;;8367556;28;19967;-75
2022/10/27 19:03:58;;;;;;;;;;;17.10;99.90;;;;;;8375281;28;19924;-76
2022/10/27 19:08:00;;;;;;;;;;;17.20;99.90;;;;;;8368813;28;20477;-76
2022/10/27 19:12:01;;;;;;;;;;;17.20;99.90;;;;;;8370860;28;19931;-76
2022/10/27 19:16:04;;;;;;;;;;;17.20;99.90;;;;;;8370396;28;19928;-76
2022/10/27 19:20:06;;;;;;;;;;;17.10;99.90;;;;;;8358898;28;19924;-76
2022/10/27 19:24:08;;;;;;;;;;;17.10;99.90;;;;;;8367467;28;19928;-76
2022/10/27 19:28:10;;;;;;;;;;;17.10;99.90;;;;;;8369686;28;20398;-75
2022/10/27 19:32:13;;;;;;;;;;;17.00;99.90;;;;;;8355019;28;19931;-76
2022/10/27 19:36:17;;;;;;;;;;;17.00;99.90;;;;;;8367134;28;19928;-75
2022/10/27 19:40:19;;;;;;;;;;;16.90;99.90;;;;;;8365794;28;20646;-75
2022/10/27 19:44:22;;;;;;;;;;;16.90;99.90;;;;;;8380458;28;19928;-75
2022/10/27 19:48:24;;;;;;;;;;;16.80;99.90;;;;;;8359954;28;19928;-75
2022/10/27 19:52:26;;;;;;;;;;;16.90;99.90;;;;;;8355465;28;19933;-75
2022/10/27 19:56:31;;;;;;;;;;;16.90;99.90;;;;;;8356647;28;20384;-75
2022/10/27 20:00:33;;;;;;;;;;;16.90;99.90;;;;;;8360439;28;19970;-75
2022/10/27 20:04:38;;;;;;;;;;;16.90;99.90;;;;;;8369839;28;20019;-75
2022/10/27 20:08:41;;;;;;;;;;;16.90;99.90;;;;;;8367110;28;19932;-76
2022/10/27 20:12:42;;;;;;;;;;;17.00;99.90;;;;;;8358935;28;20020;-75
2022/10/27 20:16:45;;;;;;;;;;;17.00;99.90;;;;;;8366430;28;19933;-75
2022/10/27 20:20:51;;;;;;;;;;;17.10;99.90;;;;;;8353705;28;19925;-75
2022/10/27 20:24:53;;;;;;;;;;;17.20;99.90;;;;;;8366007;28;19925;-75
2022/10/27 20:28:56;;;;;;;;;;;17.20;99.90;;;;;;8365410;28;19929;-75
2022/10/27 20:32:58;;;;;;;;;;;17.30;99.90;;;;;;8365015;28;20385;-75
2022/10/27 20:37:00;;;;;;;;;;;17.30;99.90;;;;;;8345255;28;19940;-76
2022/10/27 20:41:05;;;;;;;;;;;17.30;99.90;;;;;;8368747;28;19924;-75
2022/10/27 20:45:07;;;;;;;;;;;17.40;99.90;;;;;;8364099;28;19938;-75
2022/10/27 20:49:09;;;;;;;;;;;17.40;99.90;;;;;;8367838;28;19931;-76
2022/10/27 20:53:11;;;;;;;;;;;17.40;99.90;;;;;;8343014;28;19931;-75
2022/10/27 20:57:13;;;;;;;;;;;17.40;99.90;;;;;;8363531;28;20168;-75
2022/10/27 21:01:28;;;;;;;;;;;17.50;99.90;;;;;;8370035;28;20015;-76
2022/10/27 21:05:29;;;;;;;;;;;17.50;99.90;;;;;;8385674;28;19928;-76
2022/10/27 21:09:31;;;;;;;;;;;17.50;99.90;;;;;;8398710;28;19954;-75
2022/10/27 21:13:33;;;;;;;;;;;17.50;99.90;;;;;;8387813;28;19924;-75
2022/10/27 21:17:34;;;;;;;;;;;17.40;99.90;;;;;;8382570;28;19927;-75
2022/10/27 21:21:37;;;;;;;;;;;17.40;99.90;;;;;;8385542;28;19928;-75
2022/10/27 21:25:38;;;;;;;;;;;17.40;99.90;;;;;;8383435;28;19928;-76
2022/10/27 21:29:40;;;;;;;;;;;17.40;99.90;;;;;;8378529;28;19928;-76
2022/10/27 21:33:42;;;;;;;;;;;17.40;99.90;;;;;;8383361;28;19936;-76
2022/10/27 21:37:52;;;;;;;;;;;17.30;99.90;;;;;;8395575;28;19931;-75
2022/10/27 21:41:54;;;;;;;;;;;17.30;99.90;;;;;;8389511;28;19931;-76
2022/10/27 21:45:56;;;;;;;;;;;17.20;99.90;;;;;;8391498;28;19924;-75
2022/10/27 21:49:57;;;;;;;;;;;17.20;99.90;;;;;;8393470;28;19931;-76
2022/10/27 21:54:00;;;;;;;;;;;17.20;99.90;;;;;;8379747;28;19928;-76
2022/10/27 21:58:02;;;;;;;;;;;17.20;99.90;;;;;;8381516;28;19928;-76
2022/10/27 22:02:03;;;;;;;;;;;17.20;99.90;;;;;;8385941;28;19947;-75
2022/10/27 22:06:06;;;;;;;;;;;17.20;99.90;;;;;;8390411;28;19935;-76
2022/10/27 22:10:08;;;;;;;;;;;17.10;99.90;;;;;;8372483;28;20011;-76
2022/10/27 22:14:10;;;;;;;;;;;17.20;99.90;;;;;;8387193;28;20027;-76
2022/10/27 22:18:11;;;;;;;;;;;17.10;99.90;;;;;;8391195;28;19925;-75
2022/10/27 22:22:13;;;;;;;;;;;17.10;99.90;;;;;;8379740;28;19931;-75
2022/10/27 22:26:16;;;;;;;;;;;17.20;99.90;;;;;;8389323;28;22386;-76
2022/10/27 22:30:18;;;;;;;;;;;17.20;99.90;;;;;;8389182;28;19931;-76
2022/10/27 22:34:20;;;;;;;;;;;17.20;99.90;;;;;;8391239;28;19947;-76
2022/10/27 22:38:21;;;;;;;;;;;17.10;99.90;;;;;;8384645;28;19950;-76
2022/10/27 22:42:23;;;;;;;;;;;17.20;99.90;;;;;;8404989;28;19928;-75
2022/10/27 22:46:29;;;;;;;;;;;17.20;99.90;;;;;;8372034;28;20513;-75
2022/10/27 22:50:30;;;;;;;;;;;17.10;99.90;;;;;;8390151;28;19938;-75
2022/10/27 22:54:32;;;;;;;;;;;17.10;99.90;;;;;;8374228;28;19932;-75
2022/10/27 22:58:33;;;;;;;;;;;17.10;99.90;;;;;;8388894;28;19931;-76
2022/10/27 23:02:35;;;;;;;;;;;17.10;99.90;;;;;;8384833;28;19936;-75
2022/10/27 23:06:37;;;;;;;;;;;17.10;99.90;;;;;;8395314;28;20313;-75
2022/10/27 23:10:38;;;;;;;;;;;17.00;99.90;;;;;;8372071;28;20027;-76
2022/10/27 23:14:40;;;;;;;;;;;17.00;99.90;;;;;;8393252;28;19938;-76
2022/10/27 23:18:41;;;;;;;;;;;16.90;99.90;;;;;;8390965;28;19924;-75
2022/10/27 23:22:43;;;;;;;;;;;16.90;99.90;;;;;;8368869;28;20437;-76
2022/10/27 23:26:45;;;;;;;;;;;16.90;99.90;;;;;;8394433;28;19933;-75
2022/10/27 23:30:47;;;;;;;;;;;16.90;99.90;;;;;;8374552;28;19967;-76
2022/10/27 23:34:48;;;;;;;;;;;16.80;99.90;;;;;;8372821;28;19931;-76
2022/10/27 23:38:50;;;;;;;;;;;16.80;99.90;;;;;;8379922;28;20019;-76